<?xml version="1.0" encoding="UTF-8" standalone="no" ?>
<gpx xmlns="http://www.topografix.com/GPX/1/1" xmlns:xsi="http://www.w3.org/2001/XMLSchema-instance" xsi:schemaLocation="http://www.topografix.com/GPX/1/1 http://www.topografix.com/GPX/1/1/gpx.xsd" version="1.1" creator="VisuGPX - https://www.visugpx.com">
  <metadata>
    <name>Mont Fromage</name>
    <desc><![CDATA[Une idée pour se gratouiller les mollets !]]></desc>
  </metadata>
  <trk>
    <name><![CDATA[Fromage]]></name>
    <trkseg>
      <trkpt lat="45.26116" lon="5.77734">
        <ele>1012.23046875</ele>
      </trkpt>
      <trkpt lat="45.26147" lon="5.7766">
        <ele>1012.60546875</ele>
      </trkpt>
      <trkpt lat="45.26244" lon="5.77537">
        <ele>1017.1875</ele>
      </trkpt>
      <trkpt lat="45.26258" lon="5.77463">
        <ele>1017.828125</ele>
      </trkpt>
      <trkpt lat="45.26189" lon="5.77221">
        <ele>1012.27734375</ele>
      </trkpt>
      <trkpt lat="45.26431" lon="5.77062">
        <ele>1020.52734375</ele>
      </trkpt>
      <trkpt lat="45.26473" lon="5.77001">
        <ele>1018.55078125</ele>
      </trkpt>
      <trkpt lat="45.26557" lon="5.76933">
        <ele>1020.953125</ele>
      </trkpt>
      <trkpt lat="45.2663" lon="5.76754">
        <ele>1021.5234375</ele>
      </trkpt>
      <trkpt lat="45.26751" lon="5.76688">
        <ele>1036.77734375</ele>
      </trkpt>
      <trkpt lat="45.26638" lon="5.76621">
        <ele>1042.109375</ele>
      </trkpt>
      <trkpt lat="45.26353" lon="5.76514">
        <ele>1066.0859375</ele>
      </trkpt>
      <trkpt lat="45.26492" lon="5.76407">
        <ele>1094.0390625</ele>
      </trkpt>
      <trkpt lat="45.26448" lon="5.76329">
        <ele>1100.38671875</ele>
      </trkpt>
      <trkpt lat="45.26456" lon="5.76241">
        <ele>1110.05859375</ele>
      </trkpt>
      <trkpt lat="45.26589" lon="5.76162">
        <ele>1108.8984375</ele>
      </trkpt>
      <trkpt lat="45.2667" lon="5.7599">
        <ele>1113.90234375</ele>
      </trkpt>
      <trkpt lat="45.26744" lon="5.75984">
        <ele>1122.4765625</ele>
      </trkpt>
      <trkpt lat="45.26851" lon="5.76014">
        <ele>1137.1171875</ele>
      </trkpt>
      <trkpt lat="45.26866" lon="5.75901">
        <ele>1113.04296875</ele>
      </trkpt>
      <trkpt lat="45.26893" lon="5.75903">
        <ele>1117.046875</ele>
      </trkpt>
      <trkpt lat="45.27036" lon="5.76039">
        <ele>1141.1796875</ele>
      </trkpt>
      <trkpt lat="45.27172" lon="5.76131">
        <ele>1132.6015625</ele>
      </trkpt>
      <trkpt lat="45.27379" lon="5.76516">
        <ele>1156.07421875</ele>
      </trkpt>
      <trkpt lat="45.27413" lon="5.76458">
        <ele>1147.6875</ele>
      </trkpt>
      <trkpt lat="45.27419" lon="5.76539">
        <ele>1151.3161621094</ele>
        <time>2010-06-05T08:18:22Z</time>
      </trkpt>
      <trkpt lat="45.27419" lon="5.76583">
        <ele>1153.2387695312</ele>
        <time>2010-06-05T08:18:38Z</time>
      </trkpt>
      <trkpt lat="45.27402" lon="5.76607">
        <ele>1154.6806640625</ele>
        <time>2010-06-05T08:18:49Z</time>
      </trkpt>
      <trkpt lat="45.27378" lon="5.76585">
        <ele>1157.083984375</ele>
        <time>2010-06-05T08:19:04Z</time>
      </trkpt>
      <trkpt lat="45.27347" lon="5.76553">
        <ele>1159.9677734375</ele>
        <time>2010-06-05T08:19:25Z</time>
      </trkpt>
      <trkpt lat="45.27292" lon="5.76554">
        <ele>1163.8129882812</ele>
        <time>2010-06-05T08:19:55Z</time>
      </trkpt>
      <trkpt lat="45.27374" lon="5.7664">
        <ele>1171.984375</ele>
        <time>2010-06-05T08:20:46Z</time>
      </trkpt>
      <trkpt lat="45.27384" lon="5.76668">
        <ele>1174.3876953125</ele>
        <time>2010-06-05T08:20:59Z</time>
      </trkpt>
      <trkpt lat="45.2746" lon="5.76754">
        <ele>1181.1171875</ele>
        <time>2010-06-05T08:21:50Z</time>
      </trkpt>
      <trkpt lat="45.27477" lon="5.76719">
        <ele>1182.5590820312</ele>
        <time>2010-06-05T08:22:08Z</time>
      </trkpt>
      <trkpt lat="45.27474" lon="5.76663">
        <ele>1185.4428710938</ele>
        <time>2010-06-05T08:22:28Z</time>
      </trkpt>
      <trkpt lat="45.27514" lon="5.76599">
        <ele>1191.2106933594</ele>
        <time>2010-06-05T08:23:00Z</time>
      </trkpt>
      <trkpt lat="45.27607" lon="5.76593">
        <ele>1198.9013671875</ele>
        <time>2010-06-05T08:23:51Z</time>
      </trkpt>
      <trkpt lat="45.27665" lon="5.76631">
        <ele>1204.1887207031</ele>
        <time>2010-06-05T08:24:26Z</time>
      </trkpt>
      <trkpt lat="45.2773" lon="5.76658">
        <ele>1209.4758300781</ele>
        <time>2010-06-05T08:25:04Z</time>
      </trkpt>
      <trkpt lat="45.27841" lon="5.76604">
        <ele>1219.0891113281</ele>
        <time>2010-06-05T08:26:08Z</time>
      </trkpt>
      <trkpt lat="45.27893" lon="5.76606">
        <ele>1223.4150390625</ele>
        <time>2010-06-05T08:26:34Z</time>
      </trkpt>
      <trkpt lat="45.28046" lon="5.76625">
        <ele>1234.9509277344</ele>
        <time>2010-06-05T08:27:52Z</time>
      </trkpt>
      <trkpt lat="45.28165" lon="5.76651">
        <ele>1244.5639648438</ele>
        <time>2010-06-05T08:28:28Z</time>
      </trkpt>
      <trkpt lat="45.28226" lon="5.76671">
        <ele>1247.4479980469</ele>
        <time>2010-06-05T08:28:42Z</time>
      </trkpt>
      <trkpt lat="45.28238" lon="5.76627">
        <ele>1249.3706054688</ele>
        <time>2010-06-05T08:28:50Z</time>
      </trkpt>
      <trkpt lat="45.28233" lon="5.76534">
        <ele>1261</ele>
      </trkpt>
      <trkpt lat="45.2828" lon="5.76668">
        <ele>1277</ele>
      </trkpt>
      <trkpt lat="45.28381" lon="5.76785">
        <ele>1302</ele>
      </trkpt>
      <trkpt lat="45.28479" lon="5.76875">
        <ele>1322</ele>
      </trkpt>
      <trkpt lat="45.28441" lon="5.76752">
        <ele>1316</ele>
      </trkpt>
      <trkpt lat="45.28479" lon="5.76601">
        <ele>1321</ele>
      </trkpt>
      <trkpt lat="45.2854" lon="5.76499">
        <ele>1321</ele>
      </trkpt>
      <trkpt lat="45.28552" lon="5.76593">
        <ele>1338</ele>
      </trkpt>
      <trkpt lat="45.28595" lon="5.76651">
        <ele>1349</ele>
      </trkpt>
      <trkpt lat="45.28667" lon="5.76773">
        <ele>1347</ele>
      </trkpt>
      <trkpt lat="45.28768" lon="5.76823">
        <ele>1347</ele>
      </trkpt>
      <trkpt lat="45.28874" lon="5.76815">
        <ele>1339</ele>
      </trkpt>
      <trkpt lat="45.29027" lon="5.76682">
        <ele>1328</ele>
      </trkpt>
      <trkpt lat="45.29146" lon="5.7664">
        <ele>1329</ele>
      </trkpt>
      <trkpt lat="45.29275" lon="5.76646">
        <ele>1336</ele>
      </trkpt>
      <trkpt lat="45.29395" lon="5.76601">
        <ele>1339</ele>
      </trkpt>
      <trkpt lat="45.29428" lon="5.7652">
        <ele>1336</ele>
      </trkpt>
      <trkpt lat="45.29453" lon="5.76489">
        <ele>1330</ele>
      </trkpt>
      <trkpt lat="45.29413" lon="5.76356">
        <ele>1328</ele>
      </trkpt>
      <trkpt lat="45.29489" lon="5.7629">
        <ele>1331</ele>
      </trkpt>
      <trkpt lat="45.2952" lon="5.76157">
        <ele>1340</ele>
      </trkpt>
      <trkpt lat="45.29599" lon="5.76134">
        <ele>1332</ele>
      </trkpt>
      <trkpt lat="45.29631" lon="5.76087">
        <ele>1333</ele>
      </trkpt>
      <trkpt lat="45.29644" lon="5.75883">
        <ele>1349</ele>
      </trkpt>
      <trkpt lat="45.29673" lon="5.75828">
        <ele>1340</ele>
      </trkpt>
      <trkpt lat="45.29739" lon="5.7587">
        <ele>1333</ele>
      </trkpt>
      <trkpt lat="45.29745" lon="5.75784">
        <ele>1341</ele>
      </trkpt>
      <trkpt lat="45.29723" lon="5.75692">
        <ele>1349</ele>
      </trkpt>
      <trkpt lat="45.29759" lon="5.75559">
        <ele>1357</ele>
      </trkpt>
      <trkpt lat="45.29806" lon="5.75525">
        <ele>1355</ele>
      </trkpt>
      <trkpt lat="45.29786" lon="5.75254">
        <ele>1389</ele>
      </trkpt>
      <trkpt lat="45.29815" lon="5.7521">
        <ele>1399</ele>
      </trkpt>
      <trkpt lat="45.2987" lon="5.75233">
        <ele>1389</ele>
      </trkpt>
      <trkpt lat="45.29917" lon="5.75197">
        <ele>1395</ele>
      </trkpt>
      <trkpt lat="45.29944" lon="5.75204">
        <ele>1395</ele>
      </trkpt>
      <trkpt lat="45.29964" lon="5.75288">
        <ele>1393</ele>
      </trkpt>
      <trkpt lat="45.3007" lon="5.75397">
        <ele>1413</ele>
      </trkpt>
      <trkpt lat="45.30109" lon="5.7547">
        <ele>1422</ele>
      </trkpt>
      <trkpt lat="45.30215" lon="5.75562">
        <ele>1440</ele>
      </trkpt>
      <trkpt lat="45.30262" lon="5.75648">
        <ele>1441</ele>
      </trkpt>
      <trkpt lat="45.30401" lon="5.75688">
        <ele>1449</ele>
      </trkpt>
      <trkpt lat="45.3043" lon="5.75643">
        <ele>1453</ele>
      </trkpt>
      <trkpt lat="45.30416" lon="5.75395">
        <ele>1503</ele>
      </trkpt>
      <trkpt lat="45.30491" lon="5.7538">
        <ele>1495</ele>
      </trkpt>
      <trkpt lat="45.30493" lon="5.75346">
        <ele>1502</ele>
      </trkpt>
      <trkpt lat="45.30432" lon="5.75341">
        <ele>1500</ele>
      </trkpt>
      <trkpt lat="45.30414" lon="5.75307">
        <ele>1516</ele>
      </trkpt>
      <trkpt lat="45.30389" lon="5.75354">
        <ele>1510</ele>
      </trkpt>
      <trkpt lat="45.30374" lon="5.75348">
        <ele>1513</ele>
      </trkpt>
      <trkpt lat="45.30373" lon="5.75309">
        <ele>1522</ele>
      </trkpt>
      <trkpt lat="45.30398" lon="5.75273">
        <ele>1522</ele>
      </trkpt>
      <trkpt lat="45.30518" lon="5.75267">
        <ele>1526</ele>
      </trkpt>
      <trkpt lat="45.30581" lon="5.75333">
        <ele>1524</ele>
      </trkpt>
      <trkpt lat="45.30647" lon="5.75359">
        <ele>1532</ele>
      </trkpt>
      <trkpt lat="45.3075" lon="5.75462">
        <ele>1553</ele>
      </trkpt>
      <trkpt lat="45.30808" lon="5.75483">
        <ele>1558</ele>
      </trkpt>
      <trkpt lat="45.30887" lon="5.75572">
        <ele>1560</ele>
      </trkpt>
      <trkpt lat="45.30903" lon="5.75543">
        <ele>1566</ele>
      </trkpt>
      <trkpt lat="45.30864" lon="5.75501">
        <ele>1564</ele>
      </trkpt>
      <trkpt lat="45.30788" lon="5.75321">
        <ele>1596</ele>
      </trkpt>
      <trkpt lat="45.30722" lon="5.7524">
        <ele>1601</ele>
      </trkpt>
      <trkpt lat="45.30722" lon="5.75206">
        <ele>1606</ele>
      </trkpt>
      <trkpt lat="45.30683" lon="5.75177">
        <ele>1607</ele>
      </trkpt>
      <trkpt lat="45.30622" lon="5.75078">
        <ele>1619</ele>
      </trkpt>
      <trkpt lat="45.30614" lon="5.74966">
        <ele>1637</ele>
      </trkpt>
      <trkpt lat="45.30582" lon="5.7489">
        <ele>1629</ele>
      </trkpt>
      <trkpt lat="45.30532" lon="5.74846">
        <ele>1628</ele>
      </trkpt>
      <trkpt lat="45.30481" lon="5.74749">
        <ele>1642</ele>
      </trkpt>
      <trkpt lat="45.30426" lon="5.74627">
        <ele>1643</ele>
      </trkpt>
      <trkpt lat="45.30333" lon="5.74582">
        <ele>1639</ele>
      </trkpt>
      <trkpt lat="45.30177" lon="5.74457">
        <ele>1615</ele>
      </trkpt>
      <trkpt lat="45.30028" lon="5.744">
        <ele>1614</ele>
      </trkpt>
      <trkpt lat="45.29942" lon="5.74345">
        <ele>1626</ele>
      </trkpt>
      <trkpt lat="45.29867" lon="5.7429">
        <ele>1640</ele>
      </trkpt>
      <trkpt lat="45.29811" lon="5.74235">
        <ele>1646</ele>
      </trkpt>
      <trkpt lat="45.2977" lon="5.74243">
        <ele>1649</ele>
      </trkpt>
      <trkpt lat="45.2972" lon="5.74332">
        <ele>1656</ele>
      </trkpt>
      <trkpt lat="45.29678" lon="5.74363">
        <ele>1656</ele>
      </trkpt>
      <trkpt lat="45.29606" lon="5.74366">
        <ele>1649</ele>
      </trkpt>
      <trkpt lat="45.2939" lon="5.74353">
        <ele>1611</ele>
      </trkpt>
      <trkpt lat="45.2925" lon="5.74457">
        <ele>1617</ele>
      </trkpt>
      <trkpt lat="45.29202" lon="5.74465">
        <ele>1625</ele>
      </trkpt>
      <trkpt lat="45.2914" lon="5.74415">
        <ele>1618</ele>
      </trkpt>
      <trkpt lat="45.28976" lon="5.74077">
        <ele>1642.8515625</ele>
      </trkpt>
      <trkpt lat="45.28888" lon="5.74045">
        <ele>1660.015625</ele>
      </trkpt>
      <trkpt lat="45.28789" lon="5.73928">
        <ele>1685.9140625</ele>
      </trkpt>
      <trkpt lat="45.28769" lon="5.73924">
        <ele>1679.3359375</ele>
      </trkpt>
      <trkpt lat="45.28822" lon="5.73842">
        <ele>1731.64453125</ele>
      </trkpt>
      <trkpt lat="45.28765" lon="5.73925">
        <ele>1677.1015625</ele>
      </trkpt>
      <trkpt lat="45.28811" lon="5.73955">
        <ele>1679.25</ele>
      </trkpt>
      <trkpt lat="45.28922" lon="5.74062">
        <ele>1654.47265625</ele>
      </trkpt>
      <trkpt lat="45.28988" lon="5.74102">
        <ele>1636.38671875</ele>
      </trkpt>
      <trkpt lat="45.29116" lon="5.74368">
        <ele>1605.64453125</ele>
      </trkpt>
      <trkpt lat="45.2918" lon="5.74451">
        <ele>1617.015625</ele>
      </trkpt>
      <trkpt lat="45.29276" lon="5.74429">
        <ele>1617.25</ele>
      </trkpt>
      <trkpt lat="45.29316" lon="5.74432">
        <ele>1607.71484375</ele>
      </trkpt>
      <trkpt lat="45.29331" lon="5.74377">
        <ele>1602.90625</ele>
      </trkpt>
      <trkpt lat="45.29451" lon="5.74329">
        <ele>1609.01171875</ele>
      </trkpt>
      <trkpt lat="45.29582" lon="5.74373">
        <ele>1636.8046875</ele>
      </trkpt>
      <trkpt lat="45.29671" lon="5.74385">
        <ele>1649.63671875</ele>
      </trkpt>
      <trkpt lat="45.29775" lon="5.74271">
        <ele>1651.203125</ele>
      </trkpt>
      <trkpt lat="45.29839" lon="5.74267">
        <ele>1645.6875</ele>
      </trkpt>
      <trkpt lat="45.2991" lon="5.74334">
        <ele>1638.21875</ele>
      </trkpt>
      <trkpt lat="45.30279" lon="5.74563">
        <ele>1628.09765625</ele>
      </trkpt>
      <trkpt lat="45.30591" lon="5.74706">
        <ele>1667.796875</ele>
      </trkpt>
      <trkpt lat="45.30652" lon="5.74704">
        <ele>1675</ele>
      </trkpt>
      <trkpt lat="45.30704" lon="5.74712">
        <ele>1671</ele>
      </trkpt>
      <trkpt lat="45.30746" lon="5.74678">
        <ele>1660</ele>
      </trkpt>
      <trkpt lat="45.30758" lon="5.74636">
        <ele>1640</ele>
      </trkpt>
      <trkpt lat="45.30738" lon="5.74576">
        <ele>1634</ele>
      </trkpt>
      <trkpt lat="45.30771" lon="5.74503">
        <ele>1625</ele>
      </trkpt>
      <trkpt lat="45.30875" lon="5.7449">
        <ele>1604</ele>
      </trkpt>
      <trkpt lat="45.30925" lon="5.74453">
        <ele>1579</ele>
      </trkpt>
      <trkpt lat="45.30859" lon="5.74422">
        <ele>1600</ele>
      </trkpt>
      <trkpt lat="45.30774" lon="5.7437">
        <ele>1577</ele>
      </trkpt>
      <trkpt lat="45.3072" lon="5.74349">
        <ele>1564</ele>
      </trkpt>
      <trkpt lat="45.30568" lon="5.74362">
        <ele>1534</ele>
      </trkpt>
      <trkpt lat="45.30451" lon="5.74245">
        <ele>1472</ele>
      </trkpt>
      <trkpt lat="45.30365" lon="5.74198">
        <ele>1477</ele>
      </trkpt>
      <trkpt lat="45.30333" lon="5.74166">
        <ele>1470</ele>
      </trkpt>
      <trkpt lat="45.30288" lon="5.74103">
        <ele>1453</ele>
      </trkpt>
      <trkpt lat="45.30142" lon="5.74067">
        <ele>1456</ele>
      </trkpt>
      <trkpt lat="45.3006" lon="5.7391">
        <ele>1421</ele>
      </trkpt>
      <trkpt lat="45.29966" lon="5.73792">
        <ele>1412</ele>
      </trkpt>
      <trkpt lat="45.2995" lon="5.7367">
        <ele>1384</ele>
      </trkpt>
      <trkpt lat="45.29954" lon="5.73639">
        <ele>1367</ele>
      </trkpt>
      <trkpt lat="45.29902" lon="5.73472">
        <ele>1331</ele>
      </trkpt>
      <trkpt lat="45.29911" lon="5.73449">
        <ele>1330</ele>
      </trkpt>
      <trkpt lat="45.29807" lon="5.7343">
        <ele>1314</ele>
      </trkpt>
      <trkpt lat="45.29754" lon="5.73376">
        <ele>1302</ele>
      </trkpt>
      <trkpt lat="45.29679" lon="5.7337">
        <ele>1291</ele>
      </trkpt>
      <trkpt lat="45.29593" lon="5.73242">
        <ele>1284</ele>
      </trkpt>
      <trkpt lat="45.29474" lon="5.73127">
        <ele>1279</ele>
      </trkpt>
      <trkpt lat="45.29329" lon="5.72824">
        <ele>1252</ele>
      </trkpt>
      <trkpt lat="45.29312" lon="5.72626">
        <ele>1252</ele>
      </trkpt>
      <trkpt lat="45.29166" lon="5.72536">
        <ele>1216</ele>
      </trkpt>
      <trkpt lat="45.29012" lon="5.7247">
        <ele>1176</ele>
      </trkpt>
      <trkpt lat="45.28868" lon="5.72448">
        <ele>1123</ele>
      </trkpt>
      <trkpt lat="45.2873" lon="5.72335">
        <ele>1096</ele>
      </trkpt>
      <trkpt lat="45.286" lon="5.72344">
        <ele>1051</ele>
      </trkpt>
      <trkpt lat="45.28555" lon="5.72325">
        <ele>1034.40234375</ele>
      </trkpt>
      <trkpt lat="45.28276" lon="5.72379">
        <ele>1051.91015625</ele>
      </trkpt>
      <trkpt lat="45.28203" lon="5.72278">
        <ele>1026.47265625</ele>
      </trkpt>
      <trkpt lat="45.28142" lon="5.72149">
        <ele>1006.34375</ele>
      </trkpt>
      <trkpt lat="45.28185" lon="5.72001">
        <ele>955.55200195312</ele>
        <time>2009-11-14T14:07:34Z</time>
      </trkpt>
      <trkpt lat="45.28177" lon="5.72066">
        <ele>972.92407226562</ele>
        <time>2009-11-14T14:07:50Z</time>
      </trkpt>
      <trkpt lat="45.28197" lon="5.72093">
        <ele>976.65759277344</ele>
        <time>2009-11-14T14:07:55Z</time>
      </trkpt>
      <trkpt lat="45.28256" lon="5.72103">
        <ele>968.85150146484</ele>
        <time>2009-11-14T14:08:05Z</time>
      </trkpt>
      <trkpt lat="45.28293" lon="5.72163">
        <ele>982.26306152344</ele>
        <time>2009-11-14T14:08:13Z</time>
      </trkpt>
      <trkpt lat="45.28307" lon="5.72158">
        <ele>979.34136962891</ele>
        <time>2009-11-14T14:08:19Z</time>
      </trkpt>
      <trkpt lat="45.28312" lon="5.72144">
        <ele>974.4697265625</ele>
        <time>2009-11-14T14:08:35Z</time>
      </trkpt>
      <trkpt lat="45.28325" lon="5.72029">
        <ele>948.03729248047</ele>
        <time>2009-11-14T14:09:24Z</time>
      </trkpt>
      <trkpt lat="45.28318" lon="5.72015">
        <ele>946.15319824219</ele>
        <time>2009-11-14T14:10:03Z</time>
      </trkpt>
      <trkpt lat="45.28316" lon="5.71994">
        <ele>941.67297363281</ele>
        <time>2009-11-14T14:10:08Z</time>
      </trkpt>
      <trkpt lat="45.28306" lon="5.71985">
        <ele>939.22271728516</ele>
        <time>2009-11-14T14:10:12Z</time>
      </trkpt>
      <trkpt lat="45.28292" lon="5.71995">
        <ele>941.75701904297</ele>
        <time>2009-11-14T14:10:18Z</time>
      </trkpt>
      <trkpt lat="45.28278" lon="5.72019">
        <ele>945.09216308594</ele>
        <time>2009-11-14T14:10:25Z</time>
      </trkpt>
      <trkpt lat="45.28276" lon="5.72019">
        <ele>945.12628173828</ele>
        <time>2009-11-14T14:10:26Z</time>
      </trkpt>
      <trkpt lat="45.28259" lon="5.72003">
        <ele>942.34301757812</ele>
        <time>2009-11-14T14:10:39Z</time>
      </trkpt>
      <trkpt lat="45.28261" lon="5.71994">
        <ele>940.20849609375</ele>
        <time>2009-11-14T14:10:44Z</time>
      </trkpt>
      <trkpt lat="45.2825" lon="5.71938">
        <ele>925.51275634766</ele>
        <time>2009-11-14T14:10:56Z</time>
      </trkpt>
      <trkpt lat="45.28207" lon="5.71879">
        <ele>926.38128662109</ele>
        <time>2009-11-14T14:11:22Z</time>
      </trkpt>
      <trkpt lat="45.28185" lon="5.7182">
        <ele>923.10876464844</ele>
        <time>2009-11-14T14:11:35Z</time>
      </trkpt>
      <trkpt lat="45.28183" lon="5.71815">
        <ele>922.61590576172</ele>
        <time>2009-11-14T14:11:53Z</time>
      </trkpt>
      <trkpt lat="45.28181" lon="5.71728">
        <ele>908.63824462891</ele>
        <time>2009-11-14T14:12:35Z</time>
      </trkpt>
      <trkpt lat="45.28206" lon="5.71653">
        <ele>891.72131347656</ele>
        <time>2009-11-14T14:12:43Z</time>
      </trkpt>
      <trkpt lat="45.28233" lon="5.71599">
        <ele>875.87176513672</ele>
        <time>2009-11-14T14:12:49Z</time>
      </trkpt>
      <trkpt lat="45.28151" lon="5.71557">
        <ele>877.56213378906</ele>
        <time>2009-11-14T14:13:07Z</time>
      </trkpt>
      <trkpt lat="45.28142" lon="5.71495">
        <ele>861.48950195312</ele>
        <time>2009-11-14T14:13:13Z</time>
      </trkpt>
      <trkpt lat="45.28134" lon="5.71478">
        <ele>858.01751708984</ele>
        <time>2009-11-14T14:13:14Z</time>
      </trkpt>
      <trkpt lat="45.28147" lon="5.71443">
        <ele>851.9970703125</ele>
        <time>2009-11-14T14:13:18Z</time>
      </trkpt>
      <trkpt lat="45.28149" lon="5.71404">
        <ele>843.04949951172</ele>
        <time>2009-11-14T14:13:28Z</time>
      </trkpt>
      <trkpt lat="45.28124" lon="5.7139">
        <ele>838.76312255859</ele>
        <time>2009-11-14T14:14:06Z</time>
      </trkpt>
      <trkpt lat="45.28081" lon="5.71405">
        <ele>842.07049560547</ele>
        <time>2009-11-14T14:14:10Z</time>
      </trkpt>
      <trkpt lat="45.27998" lon="5.71389">
        <ele>833.27764892578</ele>
        <time>2009-11-14T14:14:20Z</time>
      </trkpt>
      <trkpt lat="45.27915" lon="5.7131">
        <ele>821.00567626953</ele>
        <time>2009-11-14T14:14:51Z</time>
      </trkpt>
      <trkpt lat="45.27918" lon="5.71283">
        <ele>815.85662841797</ele>
        <time>2009-11-14T14:14:57Z</time>
      </trkpt>
      <trkpt lat="45.27882" lon="5.71187">
        <ele>794.79504394531</ele>
        <time>2009-11-14T14:15:07Z</time>
      </trkpt>
      <trkpt lat="45.27859" lon="5.71173">
        <ele>791.83874511719</ele>
        <time>2009-11-14T14:15:14Z</time>
      </trkpt>
      <trkpt lat="45.27811" lon="5.71139">
        <ele>780.39813232422</ele>
        <time>2009-11-14T14:15:22Z</time>
      </trkpt>
      <trkpt lat="45.27796" lon="5.71117">
        <ele>773.1923828125</ele>
        <time>2009-11-14T14:15:28Z</time>
      </trkpt>
      <trkpt lat="45.27749" lon="5.71145">
        <ele>773.00958251953</ele>
        <time>2009-11-14T14:15:41Z</time>
      </trkpt>
      <trkpt lat="45.27714" lon="5.71138">
        <ele>766.92633056641</ele>
        <time>2009-11-14T14:15:48Z</time>
      </trkpt>
      <trkpt lat="45.27667" lon="5.71108">
        <ele>755.03015136719</ele>
        <time>2009-11-14T14:15:56Z</time>
      </trkpt>
      <trkpt lat="45.27675" lon="5.712">
        <ele>761.26965332031</ele>
        <time>2009-11-14T14:17:58Z</time>
      </trkpt>
      <trkpt lat="45.27664" lon="5.71267">
        <ele>762.22784423828</ele>
        <time>2009-11-14T14:18:24Z</time>
      </trkpt>
      <trkpt lat="45.2762" lon="5.71341">
        <ele>763.73474121094</ele>
        <time>2009-11-14T14:19:12Z</time>
      </trkpt>
      <trkpt lat="45.27578" lon="5.7138">
        <ele>765.56005859375</ele>
        <time>2009-11-14T14:19:28Z</time>
      </trkpt>
      <trkpt lat="45.27545" lon="5.71212">
        <ele>740.52996826172</ele>
        <time>2009-11-14T14:20:11Z</time>
      </trkpt>
      <trkpt lat="45.27518" lon="5.71183">
        <ele>737.13024902344</ele>
        <time>2009-11-14T14:20:16Z</time>
      </trkpt>
      <trkpt lat="45.27462" lon="5.71106">
        <ele>722.35388183594</ele>
        <time>2009-11-14T14:21:17Z</time>
      </trkpt>
      <trkpt lat="45.27443" lon="5.71096">
        <ele>719.658203125</ele>
        <time>2009-11-14T14:21:24Z</time>
      </trkpt>
      <trkpt lat="45.27417" lon="5.71114">
        <ele>726.77709960938</ele>
        <time>2009-11-14T14:21:39Z</time>
      </trkpt>
      <trkpt lat="45.27417" lon="5.71113">
        <ele>726.52703857422</ele>
        <time>2009-11-14T14:21:40Z</time>
      </trkpt>
      <trkpt lat="45.27435" lon="5.70987">
        <ele>685.70593261719</ele>
        <time>2009-11-14T14:22:47Z</time>
      </trkpt>
      <trkpt lat="45.27454" lon="5.7098">
        <ele>686.10205078125</ele>
        <time>2009-11-14T14:23:08Z</time>
      </trkpt>
      <trkpt lat="45.27462" lon="5.70948">
        <ele>681.31890869141</ele>
        <time>2009-11-14T14:23:13Z</time>
      </trkpt>
      <trkpt lat="45.27465" lon="5.70873">
        <ele>671.77978515625</ele>
        <time>2009-11-14T14:23:29Z</time>
      </trkpt>
      <trkpt lat="45.27473" lon="5.7085">
        <ele>671.45074462891</ele>
        <time>2009-11-14T14:23:40Z</time>
      </trkpt>
      <trkpt lat="45.2753" lon="5.70799">
        <ele>674.46557617188</ele>
        <time>2009-11-14T14:24:07Z</time>
      </trkpt>
      <trkpt lat="45.27586" lon="5.70744">
        <ele>671.94720458984</ele>
        <time>2009-11-14T14:24:17Z</time>
      </trkpt>
      <trkpt lat="45.27594" lon="5.70711">
        <ele>664.419921875</ele>
        <time>2009-11-14T14:24:21Z</time>
      </trkpt>
      <trkpt lat="45.27612" lon="5.70676">
        <ele>659.18634033203</ele>
        <time>2009-11-14T14:24:25Z</time>
      </trkpt>
      <trkpt lat="45.27653" lon="5.7064">
        <ele>657.69927978516</ele>
        <time>2009-11-14T14:24:30Z</time>
      </trkpt>
      <trkpt lat="45.2768" lon="5.70599">
        <ele>652.84973144531</ele>
        <time>2009-11-14T14:24:34Z</time>
      </trkpt>
      <trkpt lat="45.27706" lon="5.70586">
        <ele>654.95770263672</ele>
        <time>2009-11-14T14:24:37Z</time>
      </trkpt>
      <trkpt lat="45.27723" lon="5.70542">
        <ele>677.96282958984</ele>
        <time>2009-11-14T14:24:41Z</time>
      </trkpt>
      <trkpt lat="45.27497" lon="5.70458">
        <ele>661.39935302734</ele>
        <time>2009-11-14T14:25:48Z</time>
      </trkpt>
      <trkpt lat="45.27435" lon="5.7048">
        <ele>641.73211669922</ele>
        <time>2009-11-14T14:26:15Z</time>
      </trkpt>
      <trkpt lat="45.27403" lon="5.70402">
        <ele>660.20867919922</ele>
        <time>2009-11-14T14:26:42Z</time>
      </trkpt>
      <trkpt lat="45.27357" lon="5.70343">
        <ele>667.060546875</ele>
        <time>2009-11-14T14:27:06Z</time>
      </trkpt>
      <trkpt lat="45.27343" lon="5.70311">
        <ele>671.82482910156</ele>
        <time>2009-11-14T14:27:12Z</time>
      </trkpt>
      <trkpt lat="45.27329" lon="5.70282">
        <ele>672.39923095703</ele>
        <time>2009-11-14T14:27:20Z</time>
      </trkpt>
      <trkpt lat="45.27317" lon="5.70245">
        <ele>676.18090820312</ele>
        <time>2009-11-14T14:27:30Z</time>
      </trkpt>
      <trkpt lat="45.27282" lon="5.70186">
        <ele>672.830078125</ele>
        <time>2009-11-14T14:27:47Z</time>
      </trkpt>
      <trkpt lat="45.27277" lon="5.70139">
        <ele>684.93872070312</ele>
        <time>2009-11-14T14:28:07Z</time>
      </trkpt>
      <trkpt lat="45.27232" lon="5.70096">
        <ele>688.40985107422</ele>
        <time>2009-11-14T14:28:30Z</time>
      </trkpt>
      <trkpt lat="45.27185" lon="5.70106">
        <ele>683.59942626953</ele>
        <time>2009-11-14T14:29:15Z</time>
      </trkpt>
      <trkpt lat="45.27151" lon="5.70122">
        <ele>665.71966552734</ele>
        <time>2009-11-14T14:29:24Z</time>
      </trkpt>
      <trkpt lat="45.27121" lon="5.70155">
        <ele>635.38458251953</ele>
        <time>2009-11-14T14:29:29Z</time>
      </trkpt>
      <trkpt lat="45.2706" lon="5.7016">
        <ele>620.34613037109</ele>
        <time>2009-11-14T14:29:41Z</time>
      </trkpt>
      <trkpt lat="45.27016" lon="5.70123">
        <ele>641.24230957031</ele>
        <time>2009-11-14T14:29:54Z</time>
      </trkpt>
      <trkpt lat="45.26995" lon="5.70124">
        <ele>637.29058837891</ele>
        <time>2009-11-14T14:30:00Z</time>
      </trkpt>
      <trkpt lat="45.26959" lon="5.70127">
        <ele>620.91290283203</ele>
        <time>2009-11-14T14:30:05Z</time>
      </trkpt>
      <trkpt lat="45.26949" lon="5.70087">
        <ele>634.18450927734</ele>
        <time>2009-11-14T14:30:10Z</time>
      </trkpt>
      <trkpt lat="45.26914" lon="5.7005">
        <ele>631.56585693359</ele>
        <time>2009-11-14T14:30:19Z</time>
      </trkpt>
      <trkpt lat="45.26906" lon="5.70039">
        <ele>633.42669677734</ele>
        <time>2009-11-14T14:30:23Z</time>
      </trkpt>
      <trkpt lat="45.26868" lon="5.70005">
        <ele>634.13128662109</ele>
        <time>2009-11-14T14:30:33Z</time>
      </trkpt>
      <trkpt lat="45.26804" lon="5.70004">
        <ele>615.48120117188</ele>
        <time>2009-11-14T14:30:47Z</time>
      </trkpt>
      <trkpt lat="45.26786" lon="5.69989">
        <ele>618.8115234375</ele>
        <time>2009-11-14T14:30:50Z</time>
      </trkpt>
      <trkpt lat="45.26767" lon="5.69981">
        <ele>618.59973144531</ele>
        <time>2009-11-14T14:30:52Z</time>
      </trkpt>
      <trkpt lat="45.26727" lon="5.69983">
        <ele>604.29779052734</ele>
        <time>2009-11-14T14:30:56Z</time>
      </trkpt>
      <trkpt lat="45.26711" lon="5.69955">
        <ele>610.71759033203</ele>
        <time>2009-11-14T14:31:01Z</time>
      </trkpt>
      <trkpt lat="45.26656" lon="5.69906">
        <ele>611.49926757812</ele>
        <time>2009-11-14T14:32:59Z</time>
      </trkpt>
      <trkpt lat="45.26622" lon="5.6988">
        <ele>612.54730224609</ele>
        <time>2009-11-14T14:33:07Z</time>
      </trkpt>
      <trkpt lat="45.26507" lon="5.69847">
        <ele>591.04071044922</ele>
        <time>2009-11-14T14:33:24Z</time>
      </trkpt>
      <trkpt lat="45.2647" lon="5.69806">
        <ele>598.55517578125</ele>
        <time>2009-11-14T14:33:48Z</time>
      </trkpt>
      <trkpt lat="45.26454" lon="5.69809">
        <ele>596.48297119141</ele>
        <time>2009-11-14T14:33:52Z</time>
      </trkpt>
      <trkpt lat="45.26405" lon="5.69838">
        <ele>568.72503662109</ele>
        <time>2009-11-14T14:34:02Z</time>
      </trkpt>
      <trkpt lat="45.26355" lon="5.69808">
        <ele>572.66754150391</ele>
        <time>2009-11-14T14:34:15Z</time>
      </trkpt>
      <trkpt lat="45.26307" lon="5.69765">
        <ele>547.421875</ele>
      </trkpt>
      <trkpt lat="45.26173" lon="5.6974">
        <ele>529.4375</ele>
      </trkpt>
      <trkpt lat="45.26097" lon="5.69781">
        <ele>506.7265625</ele>
      </trkpt>
      <trkpt lat="45.26099" lon="5.69821">
        <ele>502.7421875</ele>
      </trkpt>
      <trkpt lat="45.26043" lon="5.69767">
        <ele>495.30078125</ele>
      </trkpt>
      <trkpt lat="45.26033" lon="5.69701">
        <ele>495.14453125</ele>
      </trkpt>
      <trkpt lat="45.25948" lon="5.69677">
        <ele>477.87890625</ele>
      </trkpt>
      <trkpt lat="45.25929" lon="5.69619">
        <ele>485.2578125</ele>
      </trkpt>
      <trkpt lat="45.2582" lon="5.69601">
        <ele>474.23046875</ele>
      </trkpt>
      <trkpt lat="45.25814" lon="5.69585">
        <ele>486.28509521484</ele>
        <time>2010-04-24T09:01:46Z</time>
      </trkpt>
      <trkpt lat="45.25818" lon="5.69559">
        <ele>493.58776855469</ele>
        <time>2010-04-24T09:01:55Z</time>
      </trkpt>
      <trkpt lat="45.25771" lon="5.69535">
        <ele>488.70291137695</ele>
        <time>2010-04-24T09:22:08Z</time>
      </trkpt>
      <trkpt lat="45.25766" lon="5.69443">
        <ele>513.55157470703</ele>
        <time>2010-04-24T09:22:50Z</time>
      </trkpt>
      <trkpt lat="45.25728" lon="5.69403">
        <ele>520.48944091797</ele>
        <time>2010-04-24T09:23:23Z</time>
      </trkpt>
      <trkpt lat="45.25711" lon="5.69337">
        <ele>541.1923828125</ele>
        <time>2010-04-24T09:23:56Z</time>
      </trkpt>
      <trkpt lat="45.25697" lon="5.69326">
        <ele>544.99505615234</ele>
        <time>2010-04-24T09:24:07Z</time>
      </trkpt>
      <trkpt lat="45.25668" lon="5.6934">
        <ele>536.91400146484</ele>
        <time>2010-04-24T09:24:29Z</time>
      </trkpt>
      <trkpt lat="45.2556" lon="5.69273">
        <ele>558.31219482422</ele>
        <time>2010-04-24T09:25:49Z</time>
      </trkpt>
      <trkpt lat="45.25402" lon="5.69224">
        <ele>548.85418701172</ele>
        <time>2010-04-24T09:27:08Z</time>
      </trkpt>
      <trkpt lat="45.25375" lon="5.69192">
        <ele>551.47631835938</ele>
        <time>2010-04-24T09:27:21Z</time>
      </trkpt>
      <trkpt lat="45.25363" lon="5.69146">
        <ele>562.95294189453</ele>
        <time>2010-04-24T09:27:35Z</time>
      </trkpt>
      <trkpt lat="45.25341" lon="5.69145">
        <ele>556.04479980469</ele>
        <time>2010-04-24T09:27:45Z</time>
      </trkpt>
      <trkpt lat="45.25332" lon="5.69139">
        <ele>554.80261230469</ele>
        <time>2010-04-24T09:27:50Z</time>
      </trkpt>
      <trkpt lat="45.25345" lon="5.69042">
        <ele>581.15966796875</ele>
        <time>2010-04-24T09:28:36Z</time>
      </trkpt>
      <trkpt lat="45.25309" lon="5.69003">
        <ele>585.19311523438</ele>
        <time>2010-04-24T09:29:11Z</time>
      </trkpt>
      <trkpt lat="45.25286" lon="5.69013">
        <ele>580.29913330078</ele>
        <time>2010-04-24T09:29:26Z</time>
      </trkpt>
      <trkpt lat="45.25246" lon="5.68959">
        <ele>593.47796630859</ele>
        <time>2010-04-24T09:30:08Z</time>
      </trkpt>
      <trkpt lat="45.25251" lon="5.68951">
        <ele>596.31768798828</ele>
        <time>2010-04-24T09:30:15Z</time>
      </trkpt>
      <trkpt lat="45.25264" lon="5.68951">
        <ele>597.07171630859</ele>
        <time>2010-04-24T09:30:31Z</time>
      </trkpt>
      <trkpt lat="45.25251" lon="5.68929">
        <ele>602.49157714844</ele>
        <time>2010-04-24T09:30:57Z</time>
      </trkpt>
      <trkpt lat="45.25182" lon="5.68887">
        <ele>605.2919921875</ele>
        <time>2010-04-24T09:31:49Z</time>
      </trkpt>
      <trkpt lat="45.25156" lon="5.68837">
        <ele>604.76824951172</ele>
        <time>2010-04-24T09:32:17Z</time>
      </trkpt>
      <trkpt lat="45.25163" lon="5.68826">
        <ele>607.85021972656</ele>
        <time>2010-04-24T10:21:52Z</time>
      </trkpt>
      <trkpt lat="45.25131" lon="5.68846">
        <ele>595.72143554688</ele>
        <time>2010-04-24T10:22:04Z</time>
      </trkpt>
      <trkpt lat="45.25123" lon="5.68866">
        <ele>590.96704101562</ele>
        <time>2010-04-24T10:22:10Z</time>
      </trkpt>
      <trkpt lat="45.25063" lon="5.68877">
        <ele>569.52935791016</ele>
        <time>2010-04-24T10:22:36Z</time>
      </trkpt>
      <trkpt lat="45.2501" lon="5.68935">
        <ele>550.05078125</ele>
        <time>2010-04-24T10:22:52Z</time>
      </trkpt>
      <trkpt lat="45.24963" lon="5.68935">
        <ele>536.67590332031</ele>
        <time>2010-04-24T10:24:48Z</time>
      </trkpt>
      <trkpt lat="45.24939" lon="5.68944">
        <ele>529.55200195312</ele>
        <time>2010-04-24T10:24:53Z</time>
      </trkpt>
      <trkpt lat="45.24862" lon="5.6892">
        <ele>513.95703125</ele>
        <time>2010-04-24T10:25:03Z</time>
      </trkpt>
      <trkpt lat="45.24806" lon="5.68915">
        <ele>501.92877197266</ele>
        <time>2010-04-24T10:25:10Z</time>
      </trkpt>
      <trkpt lat="45.2478" lon="5.68902">
        <ele>493.89144897461</ele>
        <time>2010-04-24T10:25:14Z</time>
      </trkpt>
      <trkpt lat="45.24665" lon="5.68873">
        <ele>465.56558227539</ele>
        <time>2010-04-24T10:25:30Z</time>
      </trkpt>
      <trkpt lat="45.2464" lon="5.68868">
        <ele>458.51379394531</ele>
        <time>2010-04-24T10:25:39Z</time>
      </trkpt>
      <trkpt lat="45.24581" lon="5.6889">
        <ele>441.98095703125</ele>
        <time>2010-04-24T10:25:52Z</time>
      </trkpt>
      <trkpt lat="45.24505" lon="5.68886">
        <ele>417.88088989258</ele>
        <time>2010-04-24T10:26:09Z</time>
      </trkpt>
      <trkpt lat="45.24464" lon="5.6889">
        <ele>403.5803527832</ele>
        <time>2010-04-24T10:26:21Z</time>
      </trkpt>
      <trkpt lat="45.24442" lon="5.68898">
        <ele>398.77285766602</ele>
        <time>2010-04-24T10:26:30Z</time>
      </trkpt>
      <trkpt lat="45.24399" lon="5.68894">
        <ele>381.10125732422</ele>
        <time>2010-04-24T10:26:42Z</time>
      </trkpt>
      <trkpt lat="45.24371" lon="5.68921">
        <ele>373.07766723633</ele>
        <time>2010-04-24T10:26:52Z</time>
      </trkpt>
      <trkpt lat="45.24373" lon="5.68934">
        <ele>372.35403442383</ele>
        <time>2010-04-24T10:26:57Z</time>
      </trkpt>
      <trkpt lat="45.24393" lon="5.6898">
        <ele>371.05056762695</ele>
        <time>2010-04-24T10:27:11Z</time>
      </trkpt>
      <trkpt lat="45.24379" lon="5.68982">
        <ele>368.42825317383</ele>
        <time>2010-04-24T10:27:28Z</time>
      </trkpt>
      <trkpt lat="45.24371" lon="5.68994">
        <ele>365.93487548828</ele>
        <time>2010-04-24T10:28:20Z</time>
      </trkpt>
      <trkpt lat="45.24293" lon="5.69067">
        <ele>344.47210693359</ele>
        <time>2010-04-24T10:28:34Z</time>
      </trkpt>
      <trkpt lat="45.24226" lon="5.69058">
        <ele>324.61642456055</ele>
        <time>2010-04-24T10:28:48Z</time>
      </trkpt>
      <trkpt lat="45.24212" lon="5.68991">
        <ele>318.45593261719</ele>
        <time>2010-04-24T10:28:58Z</time>
      </trkpt>
      <trkpt lat="45.24231" lon="5.68901">
        <ele>312.25857543945</ele>
        <time>2010-04-24T10:29:08Z</time>
      </trkpt>
      <trkpt lat="45.24237" lon="5.68794">
        <ele>282.7741394043</ele>
        <time>2010-04-24T10:29:18Z</time>
      </trkpt>
      <trkpt lat="45.2427" lon="5.68754">
        <ele>282.72232055664</ele>
        <time>2010-04-24T10:29:26Z</time>
      </trkpt>
      <trkpt lat="45.24287" lon="5.6872">
        <ele>281.14755249023</ele>
        <time>2010-04-24T10:29:32Z</time>
      </trkpt>
      <trkpt lat="45.24295" lon="5.68681">
        <ele>274.25259399414</ele>
        <time>2010-04-24T10:29:38Z</time>
      </trkpt>
      <trkpt lat="45.24253" lon="5.68636">
        <ele>253.52375793457</ele>
        <time>2010-04-24T10:29:52Z</time>
      </trkpt>
      <trkpt lat="45.24212" lon="5.68622">
        <ele>247.85412597656</ele>
        <time>2010-04-24T10:29:59Z</time>
      </trkpt>
      <trkpt lat="45.24153" lon="5.68578">
        <ele>238.90852355957</ele>
        <time>2010-04-24T10:30:08Z</time>
      </trkpt>
      <trkpt lat="45.24086" lon="5.68706">
        <ele>243.76164245606</ele>
        <time>2010-04-24T10:35:43Z</time>
      </trkpt>
      <trkpt lat="45.24089" lon="5.68751">
        <ele>246.85342407227</ele>
        <time>2010-04-24T10:35:51Z</time>
      </trkpt>
      <trkpt lat="45.24048" lon="5.68862">
        <ele>245.72380065918</ele>
        <time>2010-04-24T10:36:14Z</time>
      </trkpt>
      <trkpt lat="45.24056" lon="5.68878">
        <ele>246.04956054688</ele>
        <time>2010-04-24T10:36:23Z</time>
      </trkpt>
      <trkpt lat="45.24046" lon="5.68863">
        <ele>245.63508605957</ele>
        <time>2010-04-24T10:36:31Z</time>
      </trkpt>
      <trkpt lat="45.24004" lon="5.68874">
        <ele>243.24359130859</ele>
        <time>2010-04-24T10:36:42Z</time>
      </trkpt>
      <trkpt lat="45.23999" lon="5.68922">
        <ele>242</ele>
        <time>2010-04-24T10:36:49Z</time>
      </trkpt>
      <trkpt lat="45.2395" lon="5.69">
        <ele>242.20703125</ele>
        <time>2010-04-24T10:37:03Z</time>
      </trkpt>
      <trkpt lat="45.23994" lon="5.69112">
        <ele>245.15397644043</ele>
        <time>2010-04-24T10:37:22Z</time>
      </trkpt>
      <trkpt lat="45.24012" lon="5.69235">
        <ele>244.87875366211</ele>
        <time>2010-04-24T10:37:41Z</time>
      </trkpt>
      <trkpt lat="45.24046" lon="5.69265">
        <ele>245.91220092773</ele>
        <time>2010-04-24T10:37:50Z</time>
      </trkpt>
      <trkpt lat="45.24076" lon="5.69299">
        <ele>250.16050720215</ele>
        <time>2010-04-24T10:38:00Z</time>
      </trkpt>
      <trkpt lat="45.241" lon="5.69483">
        <ele>291.78601074219</ele>
        <time>2010-04-24T10:39:48Z</time>
      </trkpt>
      <trkpt lat="45.24079" lon="5.69484">
        <ele>295.33767700195</ele>
        <time>2010-04-24T10:40:15Z</time>
      </trkpt>
      <trkpt lat="45.24058" lon="5.69477">
        <ele>292.68200683594</ele>
        <time>2010-04-24T10:40:42Z</time>
      </trkpt>
      <trkpt lat="45.24018" lon="5.69515">
        <ele>304.38327026367</ele>
        <time>2010-04-24T10:41:18Z</time>
      </trkpt>
      <trkpt lat="45.23981" lon="5.69531">
        <ele>309.49624633789</ele>
        <time>2010-04-24T10:41:33Z</time>
      </trkpt>
      <trkpt lat="45.23955" lon="5.69533">
        <ele>309.12265014648</ele>
        <time>2010-04-24T10:41:53Z</time>
      </trkpt>
      <trkpt lat="45.23897" lon="5.69475">
        <ele>287.85638427734</ele>
        <time>2010-04-24T10:42:03Z</time>
      </trkpt>
      <trkpt lat="45.23882" lon="5.69479">
        <ele>290.32070922852</ele>
        <time>2010-04-24T10:42:06Z</time>
      </trkpt>
      <trkpt lat="45.23809" lon="5.6945">
        <ele>283.82110595703</ele>
        <time>2010-04-24T10:42:17Z</time>
      </trkpt>
      <trkpt lat="45.23727" lon="5.69449">
        <ele>276.86380004883</ele>
        <time>2010-04-24T10:42:35Z</time>
      </trkpt>
      <trkpt lat="45.23693" lon="5.69468">
        <ele>280.43453979492</ele>
        <time>2010-04-24T10:42:44Z</time>
      </trkpt>
      <trkpt lat="45.23607" lon="5.69478">
        <ele>279.97418212891</ele>
        <time>2010-04-24T10:43:03Z</time>
      </trkpt>
      <trkpt lat="45.23528" lon="5.69542">
        <ele>303.98162841797</ele>
        <time>2010-04-24T10:44:14Z</time>
      </trkpt>
      <trkpt lat="45.23491" lon="5.6956">
        <ele>311.4870300293</ele>
        <time>2010-04-24T10:44:53Z</time>
      </trkpt>
      <trkpt lat="45.23464" lon="5.69564">
        <ele>313.38763427734</ele>
        <time>2010-04-24T10:45:08Z</time>
      </trkpt>
      <trkpt lat="45.23418" lon="5.69528">
        <ele>296.15017700195</ele>
        <time>2010-04-24T10:45:24Z</time>
      </trkpt>
      <trkpt lat="45.23405" lon="5.69438">
        <ele>265.80752563477</ele>
        <time>2010-04-24T10:45:40Z</time>
      </trkpt>
      <trkpt lat="45.23393" lon="5.69439">
        <ele>269.70196533203</ele>
        <time>2010-04-24T10:45:45Z</time>
      </trkpt>
      <trkpt lat="45.23372" lon="5.69439">
        <ele>268.70770263672</ele>
        <time>2010-04-24T10:45:51Z</time>
      </trkpt>
      <trkpt lat="45.23304" lon="5.69434">
        <ele>270.47067260742</ele>
        <time>2010-04-24T10:46:15Z</time>
      </trkpt>
      <trkpt lat="45.23265" lon="5.69414">
        <ele>252.77883911133</ele>
        <time>2010-04-24T10:46:22Z</time>
      </trkpt>
      <trkpt lat="45.23153" lon="5.69411">
        <ele>254.22875976562</ele>
        <time>2010-04-24T10:46:36Z</time>
      </trkpt>
      <trkpt lat="45.2312" lon="5.69418">
        <ele>254.44660949707</ele>
        <time>2010-04-24T10:46:40Z</time>
      </trkpt>
      <trkpt lat="45.23093" lon="5.69416">
        <ele>250.90599060059</ele>
        <time>2010-04-24T10:46:44Z</time>
      </trkpt>
      <trkpt lat="45.23017" lon="5.69347">
        <ele>231.08929443359</ele>
        <time>2010-04-24T10:47:04Z</time>
      </trkpt>
      <trkpt lat="45.2296" lon="5.69379">
        <ele>229.94079589844</ele>
        <time>2010-04-24T10:47:15Z</time>
      </trkpt>
      <trkpt lat="45.22926" lon="5.6937">
        <ele>225.71788024902</ele>
        <time>2010-04-24T10:47:21Z</time>
      </trkpt>
      <trkpt lat="45.22831" lon="5.69401">
        <ele>223.02714538574</ele>
        <time>2010-04-24T10:47:43Z</time>
      </trkpt>
      <trkpt lat="45.22799" lon="5.69472">
        <ele>229.46911621094</ele>
        <time>2010-06-12T08:49:03Z</time>
      </trkpt>
      <trkpt lat="45.22755" lon="5.69493">
        <ele>233.68383789062</ele>
        <time>2010-06-12T08:49:21Z</time>
      </trkpt>
      <trkpt lat="45.22651" lon="5.69485">
        <ele>234.82110595703</ele>
        <time>2010-06-12T08:50:13Z</time>
      </trkpt>
      <trkpt lat="45.22529" lon="5.69525">
        <ele>245.89704895019</ele>
        <time>2010-06-12T08:50:56Z</time>
      </trkpt>
      <trkpt lat="45.22474" lon="5.69529">
        <ele>253.27523803711</ele>
        <time>2010-06-12T08:51:10Z</time>
      </trkpt>
      <trkpt lat="45.22442" lon="5.6952">
        <ele>253.42816162109</ele>
        <time>2010-06-12T08:51:29Z</time>
      </trkpt>
      <trkpt lat="45.22419" lon="5.69519">
        <ele>256.37377929688</ele>
        <time>2010-06-12T08:51:58Z</time>
      </trkpt>
      <trkpt lat="45.22388" lon="5.69508">
        <ele>254.20518493652</ele>
        <time>2010-06-12T08:52:23Z</time>
      </trkpt>
      <trkpt lat="45.22356" lon="5.69474">
        <ele>243.11100769043</ele>
        <time>2010-06-12T08:52:45Z</time>
      </trkpt>
      <trkpt lat="45.22306" lon="5.69466">
        <ele>247.61553955078</ele>
        <time>2010-06-12T08:53:09Z</time>
      </trkpt>
      <trkpt lat="45.223" lon="5.6946">
        <ele>245.95759582519</ele>
        <time>2010-06-12T08:53:12Z</time>
      </trkpt>
      <trkpt lat="45.22245" lon="5.69449">
        <ele>248.25262451172</ele>
        <time>2010-06-12T08:53:35Z</time>
      </trkpt>
      <trkpt lat="45.2219" lon="5.69403">
        <ele>243.20481872559</ele>
        <time>2010-06-12T08:54:32Z</time>
      </trkpt>
      <trkpt lat="45.22256" lon="5.6943">
        <ele>237.63870239258</ele>
        <time>2010-06-12T08:55:08Z</time>
      </trkpt>
      <trkpt lat="45.22265" lon="5.69375">
        <ele>220.81266784668</ele>
        <time>2010-06-12T08:55:29Z</time>
      </trkpt>
      <trkpt lat="45.22289" lon="5.69354">
        <ele>214.85321044922</ele>
        <time>2010-06-12T08:55:38Z</time>
      </trkpt>
      <trkpt lat="45.22222" lon="5.69365">
        <ele>225.46124267578</ele>
        <time>2010-06-12T08:56:26Z</time>
      </trkpt>
      <trkpt lat="45.22174" lon="5.69336">
        <ele>219.1164855957</ele>
        <time>2010-06-12T08:56:41Z</time>
      </trkpt>
      <trkpt lat="45.22089" lon="5.69301">
        <ele>221.66302490234</ele>
        <time>2010-06-12T08:57:05Z</time>
      </trkpt>
      <trkpt lat="45.22079" lon="5.69275">
        <ele>216.32966613769</ele>
        <time>2010-06-12T08:57:10Z</time>
      </trkpt>
      <trkpt lat="45.22057" lon="5.69181">
        <ele>209</ele>
        <time>2010-06-12T08:57:25Z</time>
      </trkpt>
      <trkpt lat="45.22" lon="5.69166">
        <ele>209.00006103516</ele>
        <time>2010-06-12T08:57:47Z</time>
      </trkpt>
      <trkpt lat="45.21804" lon="5.69338">
        <ele>211.15420532227</ele>
        <time>2010-06-12T08:58:36Z</time>
      </trkpt>
      <trkpt lat="45.21765" lon="5.69356">
        <ele>212.99588012695</ele>
        <time>2010-06-12T08:58:44Z</time>
      </trkpt>
      <trkpt lat="45.21679" lon="5.6943">
        <ele>211.93965148926</ele>
        <time>2010-06-12T08:59:02Z</time>
      </trkpt>
      <trkpt lat="45.21486" lon="5.69617">
        <ele>205.15592956543</ele>
        <time>2010-06-12T08:59:45Z</time>
      </trkpt>
      <trkpt lat="45.21349" lon="5.69911">
        <ele>215.4598236084</ele>
        <time>2010-06-12T09:00:32Z</time>
      </trkpt>
      <trkpt lat="45.2128" lon="5.70013">
        <ele>218.60990905762</ele>
        <time>2010-06-12T09:00:53Z</time>
      </trkpt>
      <trkpt lat="45.2126" lon="5.70004">
        <ele>214.09564208984</ele>
        <time>2010-06-12T09:00:58Z</time>
      </trkpt>
      <trkpt lat="45.21246" lon="5.69968">
        <ele>211.85443115234</ele>
        <time>2010-06-12T09:01:03Z</time>
      </trkpt>
      <trkpt lat="45.21123" lon="5.69864">
        <ele>209</ele>
        <time>2010-06-12T09:01:32Z</time>
      </trkpt>
      <trkpt lat="45.21093" lon="5.69883">
        <ele>208.36126708984</ele>
        <time>2010-06-12T09:01:39Z</time>
      </trkpt>
      <trkpt lat="45.20976" lon="5.7017">
        <ele>206.88481140137</ele>
        <time>2010-06-12T09:02:19Z</time>
      </trkpt>
      <trkpt lat="45.20906" lon="5.70304">
        <ele>209.64627075195</ele>
        <time>2010-06-12T09:02:47Z</time>
      </trkpt>
      <trkpt lat="45.20864" lon="5.70267">
        <ele>209.44834899902</ele>
        <time>2010-06-12T09:03:00Z</time>
      </trkpt>
      <trkpt lat="45.20841" lon="5.70267">
        <ele>209.10469055176</ele>
        <time>2010-06-12T09:03:07Z</time>
      </trkpt>
      <trkpt lat="45.20802" lon="5.70259">
        <ele>209</ele>
        <time>2010-06-12T09:03:17Z</time>
      </trkpt>
      <trkpt lat="45.20616" lon="5.70706">
        <ele>214.23876953125</ele>
        <time>2010-06-12T09:04:24Z</time>
      </trkpt>
      <trkpt lat="45.20514" lon="5.7105">
        <ele>214.94415283203</ele>
        <time>2010-06-12T09:05:07Z</time>
      </trkpt>
      <trkpt lat="45.20445" lon="5.71179">
        <ele>219.26153564453</ele>
        <time>2010-06-12T09:05:26Z</time>
      </trkpt>
      <trkpt lat="45.2021" lon="5.71478">
        <ele>217.94232177734</ele>
        <time>2010-06-12T09:06:18Z</time>
      </trkpt>
      <trkpt lat="45.201" lon="5.71583">
        <ele>213.49987792969</ele>
        <time>2010-06-12T09:06:40Z</time>
      </trkpt>
      <trkpt lat="45.2004" lon="5.71612">
        <ele>213.28315734863</ele>
        <time>2010-06-12T09:06:50Z</time>
      </trkpt>
      <trkpt lat="45.19969" lon="5.71616">
        <ele>212.51718139648</ele>
        <time>2010-06-12T09:07:01Z</time>
      </trkpt>
      <trkpt lat="45.19782" lon="5.71576">
        <ele>216.38325500488</ele>
        <time>2010-06-12T09:07:30Z</time>
      </trkpt>
      <trkpt lat="45.19692" lon="5.71565">
        <ele>212.26585388184</ele>
        <time>2010-06-12T09:07:44Z</time>
      </trkpt>
      <trkpt lat="45.19586" lon="5.71579">
        <ele>209.12324523926</ele>
        <time>2010-06-12T09:08:01Z</time>
      </trkpt>
      <trkpt lat="45.19463" lon="5.71641">
        <ele>218.15032958984</ele>
        <time>2010-06-12T09:08:21Z</time>
      </trkpt>
      <trkpt lat="45.19411" lon="5.71697">
        <ele>224.06484985352</ele>
        <time>2010-06-12T09:08:31Z</time>
      </trkpt>
      <trkpt lat="45.19351" lon="5.7181">
        <ele>219.88989257812</ele>
        <time>2010-06-12T09:08:46Z</time>
      </trkpt>
      <trkpt lat="45.19328" lon="5.71882">
        <ele>216.28355407715</ele>
        <time>2010-06-12T09:08:55Z</time>
      </trkpt>
      <trkpt lat="45.19326" lon="5.72102">
        <ele>217.86158752441</ele>
        <time>2010-06-12T09:09:17Z</time>
      </trkpt>
      <trkpt lat="45.19335" lon="5.72102">
        <ele>218.67356872559</ele>
        <time>2010-06-12T09:09:23Z</time>
      </trkpt>
      <trkpt lat="45.19331" lon="5.71994">
        <ele>215</ele>
        <time>2010-06-12T09:09:43Z</time>
      </trkpt>
      <trkpt lat="45.19235" lon="5.72054">
        <ele>215.126953125</ele>
        <time>2010-06-12T09:10:13Z</time>
      </trkpt>
    </trkseg>
  </trk>
</gpx>